Time;durP1;ratioP1;P1;durP2;ratioP2;P2;SDS_P1;SDS_P2;PMS_P1;PMS_P2;Temp;Humidity;BMP_temperature;BMP_pressure;BME280_temperature;BME280_humidity;BME280_pressure;Samples;Min_cycle;Max_cycle;Signal;HPM_P1;HPM_P2
2022/07/20 00:02:25;;;;;;;;;;;25.70;75.80;;;;;;5138751;27;20309;-75
2022/07/20 00:04:50;;;;;;;;;;;25.60;76.10;;;;;;5139139;27;20009;-76
2022/07/20 00:07:17;;;;;;;;;;;25.50;76.60;;;;;;5144465;27;19930;-76
2022/07/20 00:12:27;;;;;;;;;;;25.30;77.70;;;;;;5159622;27;19988;-76
2022/07/20 00:14:53;;;;;;;;;;;25.10;77.50;;;;;;5138999;27;19975;-77
2022/07/20 00:17:18;;;;;;;;;;;25.10;78.10;;;;;;5162842;27;19931;-76
2022/07/20 00:19:44;;;;;;;;;;;25.00;77.70;;;;;;5164317;27;19922;-76
2022/07/20 00:22:09;;;;;;;;;;;24.90;78.00;;;;;;5163114;27;19931;-77
2022/07/20 00:24:35;;;;;;;;;;;24.80;78.00;;;;;;5144487;27;19954;-76
2022/07/20 00:27:01;;;;;;;;;;;24.70;78.10;;;;;;5144946;27;19919;-76
2022/07/20 00:29:26;;;;;;;;;;;24.70;78.20;;;;;;5146614;27;19923;-77
2022/07/20 00:31:52;;;;;;;;;;;24.80;78.10;;;;;;5146207;27;19968;-76
2022/07/20 00:34:17;;;;;;;;;;;24.70;78.10;;;;;;5165087;27;19919;-77
2022/07/20 00:36:43;;;;;;;;;;;24.70;78.00;;;;;;5147092;27;19930;-76
2022/07/20 00:39:08;;;;;;;;;;;24.60;78.30;;;;;;5163318;27;19923;-76
2022/07/20 00:41:34;;;;;;;;;;;24.40;78.40;;;;;;5167085;27;20013;-76
2022/07/20 00:44:07;;;;;;;;;;;24.50;78.50;;;;;;5162539;27;20305;-76
2022/07/20 00:46:34;;;;;;;;;;;24.50;78.70;;;;;;5158604;27;20305;-76
2022/07/20 00:49:00;;;;;;;;;;;24.40;78.90;;;;;;5165557;27;19930;-75
2022/07/20 00:51:25;;;;;;;;;;;24.30;78.90;;;;;;5142377;27;20375;-76
2022/07/20 00:53:51;;;;;;;;;;;24.20;79.40;;;;;;5164034;27;19930;-76
2022/07/20 00:56:17;;;;;;;;;;;24.10;79.40;;;;;;5164615;27;20009;-76
2022/07/20 00:58:43;;;;;;;;;;;24.20;79.30;;;;;;5140656;27;19945;-76
2022/07/20 01:01:08;;;;;;;;;;;24.10;79.40;;;;;;5163254;27;19923;-76
2022/07/20 01:03:34;;;;;;;;;;;24.10;79.70;;;;;;5166623;27;19954;-76
2022/07/20 01:05:59;;;;;;;;;;;24.00;80.10;;;;;;5161662;27;20293;-76
2022/07/20 01:08:26;;;;;;;;;;;24.00;79.70;;;;;;5159405;27;19923;-77
2022/07/20 01:10:52;;;;;;;;;;;24.00;79.90;;;;;;5158062;27;20022;-77
2022/07/20 01:13:17;;;;;;;;;;;23.90;79.80;;;;;;5164460;27;20002;-77
2022/07/20 01:15:43;;;;;;;;;;;23.90;79.60;;;;;;5164676;27;19926;-76
2022/07/20 01:18:08;;;;;;;;;;;23.90;79.70;;;;;;5145036;27;19950;-76
2022/07/20 01:20:35;;;;;;;;;;;23.80;79.60;;;;;;5164919;27;20017;-75
2022/07/20 01:23:00;;;;;;;;;;;23.80;79.60;;;;;;5144050;27;19988;-77
2022/07/20 01:25:26;;;;;;;;;;;23.80;79.80;;;;;;5166401;27;19923;-77
2022/07/20 01:27:54;;;;;;;;;;;23.80;79.70;;;;;;5161407;27;19962;-76
2022/07/20 01:30:20;;;;;;;;;;;23.80;79.70;;;;;;5147092;27;20385;-76
2022/07/20 01:32:45;;;;;;;;;;;23.70;79.40;;;;;;5144240;27;19923;-76
2022/07/20 01:35:11;;;;;;;;;;;23.70;79.40;;;;;;5146007;27;19923;-76
2022/07/20 01:37:37;;;;;;;;;;;23.70;79.30;;;;;;5146266;27;19923;-76
2022/07/20 01:40:02;;;;;;;;;;;23.70;79.10;;;;;;5162017;27;19924;-77
2022/07/20 01:42:28;;;;;;;;;;;23.70;79.50;;;;;;5165595;27;19975;-76
2022/07/20 01:44:53;;;;;;;;;;;23.60;79.80;;;;;;5162311;27;19923;-77
2022/07/20 01:47:19;;;;;;;;;;;23.60;79.70;;;;;;5146835;27;19926;-76
2022/07/20 01:49:44;;;;;;;;;;;23.60;79.30;;;;;;5144075;27;19931;-76
2022/07/20 01:52:10;;;;;;;;;;;23.60;79.30;;;;;;5164364;27;19927;-76
2022/07/20 01:54:35;;;;;;;;;;;23.70;79.10;;;;;;5163972;27;19927;-77
2022/07/20 01:57:01;;;;;;;;;;;23.60;78.90;;;;;;5146813;27;19970;-77
2022/07/20 01:59:26;;;;;;;;;;;23.70;79.00;;;;;;5170279;27;20293;-76
2022/07/20 02:01:52;;;;;;;;;;;23.70;78.90;;;;;;5165448;27;19930;-77
2022/07/20 02:04:17;;;;;;;;;;;23.70;79.60;;;;;;5152083;27;20005;-76
2022/07/20 02:06:43;;;;;;;;;;;23.60;79.10;;;;;;5166794;27;19923;-77
2022/07/20 02:09:08;;;;;;;;;;;23.60;79.00;;;;;;5149330;27;19923;-76
2022/07/20 02:11:34;;;;;;;;;;;23.60;79.10;;;;;;5149530;27;19923;-76
2022/07/20 02:13:59;;;;;;;;;;;23.60;79.00;;;;;;5167102;27;20393;-76
2022/07/20 02:16:25;;;;;;;;;;;23.60;78.80;;;;;;5168142;27;20013;-76
2022/07/20 02:18:51;;;;;;;;;;;23.60;79.00;;;;;;5147698;27;19929;-76
2022/07/20 02:21:18;;;;;;;;;;;23.50;79.00;;;;;;5151296;27;19930;-76
2022/07/20 02:23:44;;;;;;;;;;;23.50;78.80;;;;;;5146984;27;19923;-76
2022/07/20 02:26:10;;;;;;;;;;;23.60;78.60;;;;;;5150142;27;20278;-76
2022/07/20 02:28:36;;;;;;;;;;;23.50;78.20;;;;;;5167353;27;20384;-77
2022/07/20 02:31:02;;;;;;;;;;;23.60;78.20;;;;;;5166789;27;19930;-77
2022/07/20 02:33:27;;;;;;;;;;;23.60;78.20;;;;;;5168106;27;19953;-76
2022/07/20 02:35:53;;;;;;;;;;;23.60;78.60;;;;;;5166441;27;20013;-76
2022/07/20 02:38:18;;;;;;;;;;;23.60;78.70;;;;;;5168768;27;20285;-76
2022/07/20 02:40:44;;;;;;;;;;;23.50;79.00;;;;;;5147011;27;19923;-77
2022/07/20 02:43:09;;;;;;;;;;;23.40;79.40;;;;;;5149177;27;19933;-76
2022/07/20 02:45:35;;;;;;;;;;;23.40;79.30;;;;;;5147818;27;19938;-76
2022/07/20 02:48:03;;;;;;;;;;;23.30;79.60;;;;;;5149212;27;19919;-77
2022/07/20 02:50:33;;;;;;;;;;;23.30;79.60;;;;;;5147596;27;19923;-76
2022/07/20 02:52:59;;;;;;;;;;;23.30;79.40;;;;;;5167362;27;19927;-77
2022/07/20 02:55:25;;;;;;;;;;;23.20;79.30;;;;;;5149160;27;20297;-77
2022/07/20 02:57:50;;;;;;;;;;;23.20;79.70;;;;;;5165555;27;19923;-77
2022/07/20 03:00:16;;;;;;;;;;;23.20;79.70;;;;;;5150161;27;19923;-77
2022/07/20 03:02:41;;;;;;;;;;;23.10;79.80;;;;;;5165594;27;19923;-77
2022/07/20 03:05:07;;;;;;;;;;;23.10;79.60;;;;;;5168067;27;19923;-77
2022/07/20 03:07:33;;;;;;;;;;;23.10;79.40;;;;;;5146442;27;19923;-77
2022/07/20 03:09:58;;;;;;;;;;;23.20;79.30;;;;;;5166956;27;20286;-77
2022/07/20 03:12:24;;;;;;;;;;;23.10;79.50;;;;;;5166415;27;19926;-77
2022/07/20 03:14:49;;;;;;;;;;;23.10;79.70;;;;;;5147475;27;19927;-77
2022/07/20 03:17:16;;;;;;;;;;;23.10;79.80;;;;;;5149392;27;19923;-76
2022/07/20 03:19:42;;;;;;;;;;;23.00;79.80;;;;;;5164415;27;20393;-77
2022/07/20 03:22:07;;;;;;;;;;;23.00;80.00;;;;;;5168155;27;19991;-77
2022/07/20 03:24:33;;;;;;;;;;;23.00;79.80;;;;;;5164811;27;19930;-77
2022/07/20 03:26:58;;;;;;;;;;;22.90;80.50;;;;;;5166887;27;19930;-77
2022/07/20 03:29:24;;;;;;;;;;;23.00;79.90;;;;;;5166177;27;19962;-76
2022/07/20 03:31:49;;;;;;;;;;;23.00;80.20;;;;;;5147573;27;20382;-76
2022/07/20 03:34:15;;;;;;;;;;;22.90;79.80;;;;;;5166497;27;19922;-76
2022/07/20 03:36:40;;;;;;;;;;;22.90;79.80;;;;;;5165357;27;19973;-76
2022/07/20 03:39:06;;;;;;;;;;;22.80;80.60;;;;;;5168037;27;19944;-76
2022/07/20 03:41:31;;;;;;;;;;;22.70;80.60;;;;;;5159561;27;19930;-75
2022/07/20 03:43:57;;;;;;;;;;;22.70;80.30;;;;;;5149165;27;20378;-75
2022/07/20 03:46:23;;;;;;;;;;;22.60;80.70;;;;;;5164955;27;19919;-76
2022/07/20 03:48:48;;;;;;;;;;;22.60;80.60;;;;;;5166234;27;19926;-75
2022/07/20 03:51:13;;;;;;;;;;;22.60;80.70;;;;;;5147601;27;20408;-76
2022/07/20 03:53:39;;;;;;;;;;;22.60;81.00;;;;;;5163939;27;19987;-77
2022/07/20 03:56:05;;;;;;;;;;;22.60;81.60;;;;;;5149401;27;19922;-77
2022/07/20 03:58:30;;;;;;;;;;;22.50;81.50;;;;;;5145484;27;20401;-76
2022/07/20 04:00:56;;;;;;;;;;;22.50;81.30;;;;;;5147906;27;19982;-76
2022/07/20 04:03:21;;;;;;;;;;;22.50;81.30;;;;;;5164893;27;19930;-77
2022/07/20 04:05:47;;;;;;;;;;;22.50;81.00;;;;;;5147505;27;19923;-76
2022/07/20 04:08:13;;;;;;;;;;;22.50;81.20;;;;;;5164692;27;19923;-77
2022/07/20 04:10:38;;;;;;;;;;;22.50;81.40;;;;;;5146621;27;19930;-77
2022/07/20 04:13:04;;;;;;;;;;;22.60;81.60;;;;;;5166952;27;19923;-77
2022/07/20 04:15:29;;;;;;;;;;;22.50;82.40;;;;;;5144378;27;19934;-76
2022/07/20 04:17:55;;;;;;;;;;;22.50;82.30;;;;;;5167160;27;19927;-77
2022/07/20 04:20:20;;;;;;;;;;;22.40;82.30;;;;;;5145697;27;19923;-76
2022/07/20 04:22:46;;;;;;;;;;;22.30;82.80;;;;;;5146435;27;20421;-77
2022/07/20 04:25:11;;;;;;;;;;;22.30;83.60;;;;;;5165020;27;19975;-77
2022/07/20 04:27:37;;;;;;;;;;;22.20;83.60;;;;;;5139421;27;19987;-76
2022/07/20 04:30:03;;;;;;;;;;;22.00;84.20;;;;;;5137512;27;19923;-76
2022/07/20 04:32:29;;;;;;;;;;;22.00;84.70;;;;;;5156394;27;19966;-77
2022/07/20 04:34:54;;;;;;;;;;;22.10;84.00;;;;;;5167095;27;19986;-77
2022/07/20 04:37:21;;;;;;;;;;;22.00;84.40;;;;;;5143880;27;19927;-76
2022/07/20 04:39:47;;;;;;;;;;;22.10;84.60;;;;;;5166509;27;20377;-77
2022/07/20 04:42:12;;;;;;;;;;;22.10;84.80;;;;;;5164074;27;19923;-77
2022/07/20 04:47:53;;;;;;;;;;;22.00;85.10;;;;;;5140228;27;19923;-75
2022/07/20 04:50:19;;;;;;;;;;;22.00;85.30;;;;;;5143889;27;19923;-77
2022/07/20 04:52:44;;;;;;;;;;;22.00;85.50;;;;;;5141448;27;20348;-76
2022/07/20 04:55:10;;;;;;;;;;;21.90;85.50;;;;;;5143310;27;19935;-76
2022/07/20 04:57:35;;;;;;;;;;;22.00;85.50;;;;;;5142074;27;19967;-76
2022/07/20 05:03:23;;;;;;;;;;;22.00;85.80;;;;;;5138194;27;19981;-75
2022/07/20 05:05:48;;;;;;;;;;;22.10;85.70;;;;;;5144135;27;19927;-76
2022/07/20 05:08:14;;;;;;;;;;;22.10;85.30;;;;;;5141898;27;19924;-77
2022/07/20 05:10:39;;;;;;;;;;;22.30;85.80;;;;;;5143264;27;19934;-77
2022/07/20 05:13:05;;;;;;;;;;;22.30;85.90;;;;;;5142621;27;19934;-77
2022/07/20 05:15:30;;;;;;;;;;;22.40;85.60;;;;;;5141843;27;19987;-78
2022/07/20 05:17:56;;;;;;;;;;;22.40;85.90;;;;;;5143519;27;20017;-77
2022/07/20 05:20:21;;;;;;;;;;;22.40;86.40;;;;;;5141911;27;20259;-66
2022/07/20 05:22:47;;;;;;;;;;;22.40;86.50;;;;;;5144255;27;19923;-66
2022/07/20 05:25:13;;;;;;;;;;;22.50;85.90;;;;;;5139694;27;19973;-66
2022/07/20 05:27:38;;;;;;;;;;;22.50;86.30;;;;;;5143513;27;20351;-67
2022/07/20 05:30:04;;;;;;;;;;;22.50;85.90;;;;;;5140910;27;19923;-73
2022/07/20 05:32:30;;;;;;;;;;;22.70;85.50;;;;;;5142290;27;20022;-73
2022/07/20 05:34:55;;;;;;;;;;;22.70;85.40;;;;;;5142075;27;19923;-74
2022/07/20 05:37:21;;;;;;;;;;;22.70;85.80;;;;;;5142277;27;20332;-73
2022/07/20 05:39:46;;;;;;;;;;;22.80;85.70;;;;;;5144812;27;19930;-73
2022/07/20 05:42:12;;;;;;;;;;;22.80;86.10;;;;;;5139706;27;19961;-73
2022/07/20 05:44:38;;;;;;;;;;;22.80;87.00;;;;;;5144384;27;19923;-73
2022/07/20 05:47:06;;;;;;;;;;;22.80;87.60;;;;;;5141436;27;19923;-73
2022/07/20 05:49:35;;;;;;;;;;;22.90;87.60;;;;;;5150297;27;20413;-73
2022/07/20 05:52:01;;;;;;;;;;;22.90;87.60;;;;;;5162586;27;19974;-73
2022/07/20 05:54:27;;;;;;;;;;;22.90;87.50;;;;;;5144794;27;19927;-74
2022/07/20 05:56:52;;;;;;;;;;;23.00;87.60;;;;;;5164626;27;19927;-74
2022/07/20 05:59:18;;;;;;;;;;;23.00;87.90;;;;;;5144141;27;19923;-74
2022/07/20 06:01:44;;;;;;;;;;;23.00;88.50;;;;;;5165137;27;20366;-74
2022/07/20 06:04:13;;;;;;;;;;;23.10;89.50;;;;;;5146633;27;19923;-74
2022/07/20 06:06:39;;;;;;;;;;;23.10;90.00;;;;;;5162063;27;20429;-74
2022/07/20 06:09:05;;;;;;;;;;;23.30;90.10;;;;;;5164288;27;19922;-68
2022/07/20 06:11:31;;;;;;;;;;;23.30;90.50;;;;;;5162169;27;19927;-68
2022/07/20 06:13:56;;;;;;;;;;;23.40;90.80;;;;;;5164002;27;19930;-68
2022/07/20 06:16:22;;;;;;;;;;;23.40;91.10;;;;;;5163463;27;20355;-68
2022/07/20 06:18:47;;;;;;;;;;;23.40;91.30;;;;;;5162827;27;19924;-68
2022/07/20 06:21:14;;;;;;;;;;;23.40;91.70;;;;;;5163468;27;19929;-68
2022/07/20 06:23:43;;;;;;;;;;;23.40;92.10;;;;;;5162782;27;19969;-69
2022/07/20 06:26:08;;;;;;;;;;;23.40;92.40;;;;;;5164849;27;20331;-69
2022/07/20 06:28:34;;;;;;;;;;;23.50;92.80;;;;;;5157025;27;19923;-68
2022/07/20 06:30:59;;;;;;;;;;;23.60;93.20;;;;;;5164524;27;19922;-68
2022/07/20 06:33:25;;;;;;;;;;;23.70;93.70;;;;;;5162980;27;19923;-68
2022/07/20 06:35:50;;;;;;;;;;;23.60;93.90;;;;;;5162990;27;20359;-68
2022/07/20 06:38:16;;;;;;;;;;;23.70;94.20;;;;;;5163657;27;20289;-68
2022/07/20 06:40:42;;;;;;;;;;;23.80;94.90;;;;;;5162491;27;20005;-68
2022/07/20 06:43:08;;;;;;;;;;;23.80;94.90;;;;;;5165186;27;19923;-68
2022/07/20 06:45:33;;;;;;;;;;;24.00;95.10;;;;;;5166076;27;19923;-68
2022/07/20 06:47:59;;;;;;;;;;;24.00;95.30;;;;;;5168097;27;19923;-68
2022/07/20 06:50:24;;;;;;;;;;;24.10;95.50;;;;;;5165464;27;19938;-69
2022/07/20 06:52:50;;;;;;;;;;;24.20;95.90;;;;;;5167538;27;19927;-69
2022/07/20 06:55:15;;;;;;;;;;;24.20;96.30;;;;;;5167542;27;19972;-68
2022/07/20 06:57:41;;;;;;;;;;;24.30;96.20;;;;;;5165862;27;20003;-68
2022/07/20 07:00:07;;;;;;;;;;;24.50;96.30;;;;;;5168115;27;19930;-68
2022/07/20 07:02:33;;;;;;;;;;;24.50;96.80;;;;;;5165388;27;19923;-85
2022/07/20 07:04:59;;;;;;;;;;;24.50;96.80;;;;;;5167748;27;19930;-69
2022/07/20 07:07:24;;;;;;;;;;;24.70;96.90;;;;;;5165981;27;20366;-69
2022/07/20 07:09:50;;;;;;;;;;;24.70;96.80;;;;;;5167177;27;20017;-69
2022/07/20 07:12:15;;;;;;;;;;;24.70;97.10;;;;;;5166355;27;20033;-69
2022/07/20 07:14:41;;;;;;;;;;;24.80;97.10;;;;;;5166085;27;20310;-69
2022/07/20 07:17:06;;;;;;;;;;;24.80;96.80;;;;;;5148621;27;20331;-69
2022/07/20 07:19:32;;;;;;;;;;;24.80;96.70;;;;;;5146462;27;19923;-68
2022/07/20 07:21:57;;;;;;;;;;;25.00;97.10;;;;;;5167645;27;20374;-68
2022/07/20 07:24:23;;;;;;;;;;;25.10;97.10;;;;;;5164602;27;20014;-67
2022/07/20 07:26:49;;;;;;;;;;;25.20;97.10;;;;;;5167789;27;20009;-67
2022/07/20 07:29:14;;;;;;;;;;;25.20;96.80;;;;;;5147330;27;19929;-68
2022/07/20 07:31:40;;;;;;;;;;;25.60;96.50;;;;;;5166041;27;19934;-68
2022/07/20 07:34:06;;;;;;;;;;;26.30;96.10;;;;;;5166944;27;19926;-69
2022/07/20 07:36:31;;;;;;;;;;;26.70;95.20;;;;;;5165008;27;19923;-68
2022/07/20 07:38:57;;;;;;;;;;;27.60;94.10;;;;;;5148462;27;19929;-68
2022/07/20 07:41:22;;;;;;;;;;;27.90;93.40;;;;;;5164477;27;20018;-69
2022/07/20 07:43:48;;;;;;;;;;;28.40;92.80;;;;;;5148766;27;20010;-69
2022/07/20 07:46:13;;;;;;;;;;;28.70;92.40;;;;;;5164621;27;19923;-67
2022/07/20 07:48:39;;;;;;;;;;;29.00;91.90;;;;;;5147886;27;20017;-66
2022/07/20 07:51:04;;;;;;;;;;;29.40;91.50;;;;;;5165227;27;19927;-68
2022/07/20 07:53:30;;;;;;;;;;;29.30;91.50;;;;;;5145872;27;20396;-68
2022/07/20 07:55:55;;;;;;;;;;;29.70;91.20;;;;;;5148122;27;19923;-69
2022/07/20 07:58:21;;;;;;;;;;;29.60;91.10;;;;;;5145639;27;20294;-69
2022/07/20 08:00:47;;;;;;;;;;;29.80;90.50;;;;;;5166842;27;20366;-69
2022/07/20 08:03:12;;;;;;;;;;;30.00;90.80;;;;;;5164678;27;19931;-69
2022/07/20 08:05:38;;;;;;;;;;;30.20;91.20;;;;;;5165970;27;19974;-69
2022/07/20 08:08:05;;;;;;;;;;;30.40;90.90;;;;;;5146197;27;19918;-68
2022/07/20 08:10:31;;;;;;;;;;;30.80;90.40;;;;;;5140139;27;19934;-68
2022/07/20 08:12:56;;;;;;;;;;;30.60;90.20;;;;;;5164295;27;19919;-70
2022/07/20 08:15:22;;;;;;;;;;;30.80;90.00;;;;;;5147395;27;19923;-71
2022/07/20 08:17:47;;;;;;;;;;;31.00;90.00;;;;;;5163402;27;19985;-71
2022/07/20 08:20:13;;;;;;;;;;;31.10;90.40;;;;;;5148299;27;19925;-70
2022/07/20 08:22:38;;;;;;;;;;;31.40;90.00;;;;;;5164133;27;20357;-70
2022/07/20 08:25:04;;;;;;;;;;;31.50;89.10;;;;;;5147041;27;19965;-70
2022/07/20 08:27:30;;;;;;;;;;;31.70;89.20;;;;;;5147142;27;19927;-71
2022/07/20 08:29:58;;;;;;;;;;;31.60;88.80;;;;;;5145065;27;19934;-71
2022/07/20 08:32:26;;;;;;;;;;;31.20;89.00;;;;;;5166262;27;19923;-70
2022/07/20 08:34:52;;;;;;;;;;;31.00;90.00;;;;;;5163069;27;19923;-71
2022/07/20 08:37:17;;;;;;;;;;;31.40;89.40;;;;;;5167063;27;19978;-69
2022/07/20 08:39:43;;;;;;;;;;;31.20;89.70;;;;;;5153398;27;19923;-74
2022/07/20 08:42:09;;;;;;;;;;;31.10;89.30;;;;;;5157918;27;19929;-72
2022/07/20 08:44:35;;;;;;;;;;;30.80;89.70;;;;;;5148009;27;20360;-74
2022/07/20 08:47:01;;;;;;;;;;;30.70;88.10;;;;;;5145688;27;20005;-72
2022/07/20 08:49:26;;;;;;;;;;;30.40;88.20;;;;;;5163992;27;20354;-71
2022/07/20 08:51:52;;;;;;;;;;;30.30;89.00;;;;;;5146237;27;19923;-70
2022/07/20 08:54:18;;;;;;;;;;;30.10;89.70;;;;;;5144950;27;19923;-74
2022/07/20 08:56:43;;;;;;;;;;;30.20;89.50;;;;;;5145269;27;19926;-69
2022/07/20 08:59:09;;;;;;;;;;;30.10;89.80;;;;;;5147645;27;19927;-71
2022/07/20 09:01:34;;;;;;;;;;;30.60;88.70;;;;;;5158799;27;19923;-72
2022/07/20 09:04:04;;;;;;;;;;;30.20;89.30;;;;;;5161354;27;19931;-71
2022/07/20 09:06:30;;;;;;;;;;;30.30;90.00;;;;;;5142574;27;19927;-70
2022/07/20 09:08:59;;;;;;;;;;;30.10;89.70;;;;;;5145972;27;19923;-70
2022/07/20 09:11:25;;;;;;;;;;;30.10;90.10;;;;;;5146557;27;19926;-70
2022/07/20 09:13:50;;;;;;;;;;;30.40;90.20;;;;;;5144717;27;20018;-70
2022/07/20 09:16:29;;;;;;;;;;;30.40;89.20;;;;;;5165048;27;20365;-69
2022/07/20 09:18:54;;;;;;;;;;;30.70;88.50;;;;;;5163670;27;19923;-75
2022/07/20 09:21:27;;;;;;;;;;;30.90;88.60;;;;;;5164428;27;19934;-72
2022/07/20 09:23:54;;;;;;;;;;;31.20;86.90;;;;;;5164220;27;19923;-71
2022/07/20 09:26:20;;;;;;;;;;;31.30;87.40;;;;;;5163917;27;20259;-74
2022/07/20 09:28:50;;;;;;;;;;;31.30;85.60;;;;;;5144250;27;19930;-74
2022/07/20 09:31:20;;;;;;;;;;;31.10;85.60;;;;;;5145275;27;19987;-74
2022/07/20 09:33:50;;;;;;;;;;;31.20;86.50;;;;;;5143511;27;19983;-73
2022/07/20 09:36:16;;;;;;;;;;;31.20;86.40;;;;;;5162993;27;20343;-78
2022/07/20 09:38:41;;;;;;;;;;;31.00;85.40;;;;;;5164345;27;20437;-73
2022/07/20 09:41:21;;;;;;;;;;;31.10;85.20;;;;;;5161855;27;19964;-75
2022/07/20 09:43:47;;;;;;;;;;;31.20;85.00;;;;;;5163542;27;20406;-75
2022/07/20 09:46:14;;;;;;;;;;;30.60;85.70;;;;;;5143454;27;19923;-75
2022/07/20 09:48:45;;;;;;;;;;;31.00;84.20;;;;;;5165001;27;20105;-74
2022/07/20 09:51:18;;;;;;;;;;;31.00;84.10;;;;;;5140822;27;19939;-76
2022/07/20 09:53:43;;;;;;;;;;;31.30;84.20;;;;;;5142186;27;19923;-75
2022/07/20 09:56:09;;;;;;;;;;;31.00;85.40;;;;;;5140521;27;19927;-72
2022/07/20 09:58:35;;;;;;;;;;;31.10;85.20;;;;;;5144409;27;19927;-73
2022/07/20 10:01:01;;;;;;;;;;;31.40;84.30;;;;;;5140667;27;19927;-79
2022/07/20 10:03:27;;;;;;;;;;;31.60;83.50;;;;;;5142875;27;19923;-74
2022/07/20 10:05:53;;;;;;;;;;;31.80;82.80;;;;;;5141854;27;19924;-73
2022/07/20 10:08:19;;;;;;;;;;;31.60;81.70;;;;;;5141426;27;19990;-79
2022/07/20 10:10:44;;;;;;;;;;;31.60;82.30;;;;;;5142613;27;20366;-75
2022/07/20 10:13:10;;;;;;;;;;;31.80;82.90;;;;;;5141750;27;19980;-75
2022/07/20 10:15:43;;;;;;;;;;;31.50;82.50;;;;;;5142926;27;19929;-75
2022/07/20 10:18:09;;;;;;;;;;;31.40;81.80;;;;;;5144789;27;20337;-76
2022/07/20 10:20:36;;;;;;;;;;;31.50;82.20;;;;;;5146005;27;19919;-75
2022/07/20 10:23:14;;;;;;;;;;;31.60;81.70;;;;;;5145000;27;19934;-77
2022/07/20 10:25:40;;;;;;;;;;;31.50;80.70;;;;;;5145600;27;19923;-75
2022/07/20 10:28:23;;;;;;;;;;;31.50;81.70;;;;;;5145151;27;19924;-74
2022/07/20 10:30:53;;;;;;;;;;;31.60;81.10;;;;;;5145655;27;19923;-75
2022/07/20 10:33:21;;;;;;;;;;;31.60;80.50;;;;;;5144772;27;19938;-76
2022/07/20 10:35:48;;;;;;;;;;;31.40;81.00;;;;;;5147664;27;19931;-77
2022/07/20 10:38:20;;;;;;;;;;;31.80;81.00;;;;;;5145308;27;20390;-77
2022/07/20 10:44:06;;;;;;;;;;;32.00;81.40;;;;;;5146449;27;19931;-75
2022/07/20 10:46:33;;;;;;;;;;;32.20;80.50;;;;;;5129216;27;19982;-75
2022/07/20 10:48:59;;;;;;;;;;;31.90;80.30;;;;;;5147356;27;20021;-76
2022/07/20 10:51:24;;;;;;;;;;;32.20;82.10;;;;;;5161459;27;20017;-72
2022/07/20 10:53:50;;;;;;;;;;;32.40;81.40;;;;;;5149833;27;20025;-77
2022/07/20 10:56:27;;;;;;;;;;;32.40;79.40;;;;;;5146222;27;20403;-77
2022/07/20 10:58:57;;;;;;;;;;;32.50;79.40;;;;;;5143073;27;19987;-74
2022/07/20 11:01:23;;;;;;;;;;;32.40;79.50;;;;;;5142991;27;20357;-76
2022/07/20 11:03:49;;;;;;;;;;;32.70;79.70;;;;;;5149563;27;19970;-76
2022/07/20 11:06:19;;;;;;;;;;;32.70;79.00;;;;;;5146181;27;19945;-76
2022/07/20 11:09:00;;;;;;;;;;;32.70;78.40;;;;;;5149776;27;20438;-75
2022/07/20 11:11:28;;;;;;;;;;;32.40;77.50;;;;;;5159761;27;19945;-80
2022/07/20 11:13:54;;;;;;;;;;;32.40;78.80;;;;;;5145530;27;19958;-77
2022/07/20 11:16:21;;;;;;;;;;;32.00;78.90;;;;;;5149932;27;20412;-78
2022/07/20 11:18:47;;;;;;;;;;;31.80;79.20;;;;;;5142091;27;19934;-73
2022/07/20 11:21:13;;;;;;;;;;;31.60;78.60;;;;;;5149229;27;19970;-77
2022/07/20 11:23:43;;;;;;;;;;;31.40;78.00;;;;;;5164651;27;21355;-75
2022/07/20 11:26:09;;;;;;;;;;;31.30;79.80;;;;;;5167672;27;20786;-77
2022/07/20 11:28:36;;;;;;;;;;;31.10;78.80;;;;;;5146173;27;19958;-80
2022/07/20 11:31:02;;;;;;;;;;;31.20;79.40;;;;;;5145818;27;19929;-78
2022/07/20 11:33:30;;;;;;;;;;;31.30;78.90;;;;;;5147624;27;19927;-76
2022/07/20 11:36:00;;;;;;;;;;;31.40;78.80;;;;;;5166540;27;20437;-75
2022/07/20 11:38:45;;;;;;;;;;;31.70;78.60;;;;;;5146600;27;19927;-72
2022/07/20 11:41:12;;;;;;;;;;;31.50;78.10;;;;;;5158919;27;20439;-76
2022/07/20 11:43:38;;;;;;;;;;;31.70;77.30;;;;;;5149310;27;20036;-75
2022/07/20 11:46:11;;;;;;;;;;;31.60;78.10;;;;;;5164544;27;19927;-79
2022/07/20 11:48:37;;;;;;;;;;;31.70;77.20;;;;;;5149204;27;19923;-86
2022/07/20 11:51:03;;;;;;;;;;;31.40;76.10;;;;;;5146084;27;20393;-82
2022/07/20 11:53:30;;;;;;;;;;;31.40;76.60;;;;;;5166059;27;19965;-85
2022/07/20 11:55:56;;;;;;;;;;;31.40;76.90;;;;;;5157029;27;19923;-75
2022/07/20 11:58:31;;;;;;;;;;;31.40;77.90;;;;;;5143909;27;19934;-77
2022/07/20 12:00:57;;;;;;;;;;;31.40;77.70;;;;;;5145895;27;19926;-74
2022/07/20 12:03:25;;;;;;;;;;;31.30;77.10;;;;;;5147061;27;20719;-76
2022/07/20 12:05:50;;;;;;;;;;;31.30;76.50;;;;;;5164577;27;19930;-75
2022/07/20 12:08:18;;;;;;;;;;;31.20;76.40;;;;;;5144735;27;20333;-75
2022/07/20 12:10:44;;;;;;;;;;;31.20;76.30;;;;;;5145327;27;19923;-75
2022/07/20 12:13:10;;;;;;;;;;;31.20;78.40;;;;;;5147767;27;20380;-71
2022/07/20 12:15:36;;;;;;;;;;;31.20;79.10;;;;;;5159377;27;19923;-71
2022/07/20 12:18:02;;;;;;;;;;;31.40;77.60;;;;;;5145558;27;19990;-74
2022/07/20 12:20:28;;;;;;;;;;;31.20;77.40;;;;;;5145382;27;20342;-71
2022/07/20 12:22:54;;;;;;;;;;;31.00;78.20;;;;;;5165390;27;19927;-74
2022/07/20 12:25:20;;;;;;;;;;;31.10;79.70;;;;;;5146713;27;20293;-71
2022/07/20 12:27:46;;;;;;;;;;;31.20;79.70;;;;;;5145601;27;20018;-70
2022/07/20 12:30:34;;;;;;;;;;;31.20;79.70;;;;;;5166136;27;19930;-70
2022/07/20 12:33:15;;;;;;;;;;;31.10;77.00;;;;;;5147517;27;20021;-69
2022/07/20 12:35:45;;;;;;;;;;;31.10;76.20;;;;;;5159980;27;19927;-69
2022/07/20 12:38:11;;;;;;;;;;;30.60;77.90;;;;;;5147493;27;19933;-76
2022/07/20 12:40:39;;;;;;;;;;;30.60;78.80;;;;;;5143811;27;20622;-71
2022/07/20 12:43:05;;;;;;;;;;;30.60;79.00;;;;;;5147258;27;20002;-73
2022/07/20 12:45:31;;;;;;;;;;;30.70;80.60;;;;;;5158988;27;19927;-79
2022/07/20 12:47:57;;;;;;;;;;;30.80;81.20;;;;;;5166305;27;19933;-74
2022/07/20 12:50:22;;;;;;;;;;;30.70;81.80;;;;;;5144393;27;20370;-70
2022/07/20 12:52:48;;;;;;;;;;;30.70;83.30;;;;;;5145794;27;19923;-76
2022/07/20 12:55:14;;;;;;;;;;;30.60;82.30;;;;;;5144748;27;20046;-77
2022/07/20 12:57:39;;;;;;;;;;;30.70;82.50;;;;;;5147779;27;20290;-76
2022/07/20 13:00:06;;;;;;;;;;;30.60;81.70;;;;;;5151907;27;20422;-77
2022/07/20 13:02:31;;;;;;;;;;;30.60;82.60;;;;;;5166186;27;19977;-74
2022/07/20 13:04:57;;;;;;;;;;;30.50;83.40;;;;;;5162441;27;19974;-78
2022/07/20 13:07:22;;;;;;;;;;;30.40;83.90;;;;;;5165988;27;19970;-78
2022/07/20 13:09:48;;;;;;;;;;;30.60;84.40;;;;;;5144850;27;19923;-78
2022/07/20 13:12:13;;;;;;;;;;;30.70;83.30;;;;;;5145031;27;20009;-78
2022/07/20 13:14:39;;;;;;;;;;;30.60;81.90;;;;;;5146390;27;19923;-77
2022/07/20 13:17:05;;;;;;;;;;;30.30;80.60;;;;;;5162292;27;19923;-77
2022/07/20 13:19:30;;;;;;;;;;;30.30;82.00;;;;;;5166129;27;19958;-78
2022/07/20 13:21:56;;;;;;;;;;;30.40;81.70;;;;;;5142809;27;19966;-75
2022/07/20 13:24:21;;;;;;;;;;;30.50;81.40;;;;;;5145780;27;20346;-77
2022/07/20 13:26:48;;;;;;;;;;;30.60;83.30;;;;;;5162819;27;19934;-78
2022/07/20 13:29:14;;;;;;;;;;;30.80;79.00;;;;;;5164563;27;20374;-75
2022/07/20 13:31:40;;;;;;;;;;;30.50;80.20;;;;;;5163980;27;19946;-74
2022/07/20 13:34:06;;;;;;;;;;;30.70;80.90;;;;;;5162980;27;19927;-74
2022/07/20 13:36:31;;;;;;;;;;;30.60;80.80;;;;;;5146639;27;20475;-76
2022/07/20 13:38:57;;;;;;;;;;;30.30;80.80;;;;;;5142801;27;19931;-71
2022/07/20 13:41:23;;;;;;;;;;;30.00;80.60;;;;;;5166081;27;19978;-73
2022/07/20 13:43:49;;;;;;;;;;;29.90;81.30;;;;;;5156615;27;19931;-81
2022/07/20 13:46:15;;;;;;;;;;;29.90;81.40;;;;;;5157413;27;19932;-72
2022/07/20 13:48:41;;;;;;;;;;;30.10;81.60;;;;;;5159128;27;20042;-72
2022/07/20 13:51:06;;;;;;;;;;;30.40;81.40;;;;;;5157545;27;19923;-72
2022/07/20 13:53:32;;;;;;;;;;;30.60;81.60;;;;;;5137763;27;19929;-72
2022/07/20 13:55:58;;;;;;;;;;;30.70;80.90;;;;;;5156483;27;20428;-72
2022/07/20 13:58:23;;;;;;;;;;;30.40;80.40;;;;;;5156705;27;19923;-71
2022/07/20 14:00:49;;;;;;;;;;;30.20;81.00;;;;;;5141241;27;20341;-74
2022/07/20 14:03:15;;;;;;;;;;;30.30;81.10;;;;;;5157857;27;19923;-71
2022/07/20 14:05:41;;;;;;;;;;;30.40;80.20;;;;;;5162414;27;19969;-72
2022/07/20 14:08:07;;;;;;;;;;;30.40;78.80;;;;;;5145188;27;19931;-72
2022/07/20 14:10:32;;;;;;;;;;;30.10;79.00;;;;;;5145711;27;19930;-72
2022/07/20 14:12:58;;;;;;;;;;;30.10;78.80;;;;;;5162030;27;19935;-71
2022/07/20 14:15:23;;;;;;;;;;;29.70;79.30;;;;;;5165228;27;19946;-65
2022/07/20 14:17:49;;;;;;;;;;;29.50;79.40;;;;;;5159225;27;20512;-65
2022/07/20 14:20:14;;;;;;;;;;;29.90;81.70;;;;;;5145409;27;20381;-66
2022/07/20 14:22:40;;;;;;;;;;;28.90;81.70;;;;;;5153311;27;19937;-65
2022/07/20 14:25:06;;;;;;;;;;;28.70;82.70;;;;;;5140479;27;19930;-66